Time;durP1;ratioP1;P1;durP2;ratioP2;P2;SDS_P1;SDS_P2;PMS_P1;PMS_P2;Temp;Humidity;BMP_temperature;BMP_pressure;BME280_temperature;BME280_humidity;BME280_pressure;Samples;Min_cycle;Max_cycle;Signal;HPM_P1;HPM_P2
2023/01/20 00:01:25;;;;;;;1.33;1.17;;;1.70;99.90;;;;;;5030429;28;20069;-65
2023/01/20 00:03:52;;;;;;;0.10;0.10;;;1.70;99.90;;;;;;5032336;28;20045;-65
2023/01/20 00:06:19;;;;;;;1.17;1.17;;;1.70;99.90;;;;;;5032344;28;20129;-65
2023/01/20 00:08:48;;;;;;;0.10;0.10;;;1.60;99.90;;;;;;5029060;28;20041;-65
2023/01/20 00:11:14;;;;;;;0.10;0.10;;;1.60;99.90;;;;;;5031404;28;20045;-65
2023/01/20 00:13:39;;;;;;;0.10;0.10;;;1.70;99.90;;;;;;5030343;28;20068;-65
2023/01/20 00:16:08;;;;;;;0.10;0.10;;;1.70;99.90;;;;;;5032276;28;20500;-65
2023/01/20 00:18:34;;;;;;;0.10;0.10;;;1.80;99.90;;;;;;5030884;28;20041;-65
2023/01/20 00:21:04;;;;;;;0.13;0.13;;;1.80;99.90;;;;;;5028840;28;20187;-65
2023/01/20 00:23:30;;;;;;;0.10;0.10;;;1.70;99.90;;;;;;5011776;28;20041;-65
2023/01/20 00:25:56;;;;;;;0.10;0.10;;;1.70;99.90;;;;;;5026728;28;20041;-65
2023/01/20 00:28:22;;;;;;;0.10;0.10;;;1.80;99.90;;;;;;5030368;28;20052;-65
2023/01/20 00:30:47;;;;;;;0.25;0.25;;;1.80;99.90;;;;;;5014155;28;20055;-65
2023/01/20 00:33:13;;;;;;;0.10;0.10;;;1.80;99.90;;;;;;5031345;28;20157;-65
2023/01/20 00:35:38;;;;;;;0.10;0.10;;;1.70;99.90;;;;;;5029783;28;20497;-65
2023/01/20 00:38:04;;;;;;;0.10;0.10;;;1.70;99.90;;;;;;5031578;28;20041;-65
2023/01/20 00:40:29;;;;;;;0.30;0.30;;;1.70;99.90;;;;;;5029675;28;20053;-65
2023/01/20 00:42:55;;;;;;;0.63;0.45;;;1.60;99.90;;;;;;5030606;28;20057;-65
2023/01/20 00:45:21;;;;;;;0.25;0.25;;;1.60;99.90;;;;;;5031891;28;20481;-65
2023/01/20 00:47:46;;;;;;;0.10;0.10;;;1.60;99.90;;;;;;5031247;28;20033;-65
2023/01/20 00:50:12;;;;;;;0.20;0.20;;;1.50;99.90;;;;;;5029600;28;20064;-65
2023/01/20 00:52:37;;;;;;;0.10;0.10;;;1.60;99.90;;;;;;5030388;28;20111;-65
2023/01/20 00:55:03;;;;;;;0.57;0.57;;;1.50;99.90;;;;;;5011640;28;20072;-65
2023/01/20 00:57:44;;;;;;;0.10;0.10;;;1.50;99.90;;;;;;5007040;28;20060;-65
2023/01/20 01:00:10;;;;;;;0.20;0.20;;;1.60;99.90;;;;;;5029435;28;20493;-65
2023/01/20 01:02:38;;;;;;;0.10;0.10;;;1.70;99.90;;;;;;5030499;28;20091;-65
2023/01/20 01:05:04;;;;;;;0.10;0.10;;;1.70;99.90;;;;;;5030280;28;20092;-65
2023/01/20 01:07:30;;;;;;;0.10;0.10;;;1.70;99.90;;;;;;5031265;28;20051;-65
2023/01/20 01:09:55;;;;;;;0.32;0.32;;;1.70;99.90;;;;;;5027516;28;20041;-65
2023/01/20 01:12:21;;;;;;;0.20;0.20;;;1.60;99.90;;;;;;5031468;28;20048;-65
2023/01/20 01:14:47;;;;;;;0.13;0.13;;;1.50;99.90;;;;;;5029851;28;20056;-65
2023/01/20 01:17:12;;;;;;;0.10;0.10;;;1.50;99.90;;;;;;5029254;28;20119;-65
2023/01/20 01:19:38;;;;;;;0.20;0.20;;;1.50;99.90;;;;;;5029713;28;20071;-65
2023/01/20 01:22:03;;;;;;;0.20;0.20;;;1.40;99.90;;;;;;5030772;28;20041;-65
2023/01/20 01:24:29;;;;;;;0.10;0.10;;;1.30;99.90;;;;;;5027914;28;20049;-65
2023/01/20 01:26:54;;;;;;;0.10;0.10;;;1.40;99.90;;;;;;5031002;28;20172;-65
2023/01/20 01:29:20;;;;;;;0.10;0.10;;;1.30;99.90;;;;;;5030401;28;20056;-65
2023/01/20 01:31:46;;;;;;;1.00;0.70;;;1.30;99.90;;;;;;5029571;28;20038;-65
2023/01/20 01:34:11;;;;;;;0.10;0.10;;;1.20;99.90;;;;;;5029020;28;20080;-65
2023/01/20 01:36:37;;;;;;;0.30;0.30;;;1.30;99.90;;;;;;5013458;28;20077;-65
2023/01/20 01:39:02;;;;;;;0.10;0.10;;;1.20;99.90;;;;;;5027373;28;20048;-65
2023/01/20 01:41:28;;;;;;;0.20;0.20;;;1.20;99.90;;;;;;5011194;28;20392;-65
2023/01/20 01:44:12;;;;;;;0.10;0.10;;;1.20;99.90;;;;;;5029513;28;20146;-65
2023/01/20 01:46:38;;;;;;;0.20;0.20;;;1.20;99.90;;;;;;5010734;28;20041;-65
2023/01/20 01:49:31;;;;;;;0.10;0.10;;;1.20;99.90;;;;;;5030525;28;20069;-65
2023/01/20 01:52:03;;;;;;;0.10;0.10;;;1.10;99.90;;;;;;5030081;28;20053;-65
2023/01/20 01:54:33;;;;;;;0.10;0.10;;;1.20;99.90;;;;;;5029353;28;20522;-65
2023/01/20 01:56:59;;;;;;;0.20;0.20;;;1.30;99.90;;;;;;5030654;28;20370;-65
2023/01/20 01:59:25;;;;;;;0.20;0.20;;;1.30;99.90;;;;;;5029737;28;20623;-65
2023/01/20 02:01:53;;;;;;;0.10;0.10;;;1.40;99.90;;;;;;5008597;28;20129;-65
2023/01/20 02:04:22;;;;;;;0.10;0.10;;;1.40;99.90;;;;;;5026111;28;20045;-65
2023/01/20 02:06:58;;;;;;;0.10;0.10;;;1.30;99.90;;;;;;5028918;28;20033;-65
2023/01/20 02:09:26;;;;;;;0.10;0.10;;;1.40;99.90;;;;;;5028838;28;20053;-65
2023/01/20 02:11:55;;;;;;;0.10;0.10;;;1.40;99.90;;;;;;5032118;28;20049;-65
2023/01/20 02:14:25;;;;;;;0.15;0.15;;;1.40;99.90;;;;;;5032033;28;20053;-65
2023/01/20 02:17:11;;;;;;;0.10;0.10;;;1.50;99.90;;;;;;5033975;28;20045;-65
2023/01/20 02:20:33;;;;;;;0.10;0.10;;;1.40;99.90;;;;;;5033517;28;20163;-65
2023/01/20 02:23:20;;;;;;;0.10;0.10;;;1.50;99.90;;;;;;5009456;28;20050;-65
2023/01/20 02:26:14;;;;;;;0.10;0.10;;;1.40;99.90;;;;;;5031819;28;20061;-65
2023/01/20 02:29:04;;;;;;;0.20;0.20;;;1.50;99.90;;;;;;4997529;28;20058;-64
2023/01/20 02:32:04;;;;;;;0.10;0.10;;;1.40;99.90;;;;;;5014505;28;20124;-65
2023/01/20 02:34:49;;;;;;;0.10;0.10;;;1.30;99.90;;;;;;5032259;28;20045;-65
2023/01/20 02:37:21;;;;;;;0.20;0.20;;;1.30;99.90;;;;;;5015400;28;20057;-65
2023/01/20 02:40:02;;;;;;;0.15;0.15;;;1.40;99.90;;;;;;5033350;28;20129;-65
2023/01/20 02:42:41;;;;;;;0.10;0.10;;;1.40;99.90;;;;;;5033402;28;20084;-65
2023/01/20 02:45:39;;;;;;;0.17;0.17;;;1.40;99.90;;;;;;5029195;28;20558;-65
2023/01/20 02:48:22;;;;;;;0.10;0.10;;;1.40;99.90;;;;;;5033147;28;20365;-65
2023/01/20 02:50:59;;;;;;;0.20;0.20;;;1.40;99.90;;;;;;5032629;28;20492;-65
2023/01/20 02:53:31;;;;;;;0.10;0.10;;;1.30;99.90;;;;;;5032446;28;20439;-65
2023/01/20 02:55:57;;;;;;;0.10;0.10;;;1.40;99.90;;;;;;5032615;28;20049;-65
2023/01/20 02:58:30;;;;;;;0.10;0.10;;;1.40;99.90;;;;;;5031848;28;20048;-65
2023/01/20 03:01:02;;;;;;;0.50;0.50;;;1.40;99.90;;;;;;5032538;28;20091;-65
2023/01/20 03:03:37;;;;;;;0.10;0.10;;;1.40;99.90;;;;;;5032103;28;20037;-65
2023/01/20 03:06:07;;;;;;;0.28;0.28;;;1.40;99.90;;;;;;5032324;28;20045;-65
2023/01/20 03:08:35;;;;;;;0.30;0.30;;;1.40;99.90;;;;;;5033554;28;20451;-65
2023/01/20 03:11:06;;;;;;;0.10;0.10;;;1.50;99.90;;;;;;5030904;28;20116;-65
2023/01/20 03:13:53;;;;;;;0.10;0.10;;;1.40;99.90;;;;;;5033046;28;20119;-65
2023/01/20 03:16:22;;;;;;;0.10;0.10;;;1.40;99.90;;;;;;5032053;28;20099;-65
2023/01/20 03:18:49;;;;;;;0.20;0.20;;;1.40;99.90;;;;;;5031758;28;20493;-65
2023/01/20 03:21:14;;;;;;;0.22;0.22;;;1.40;99.90;;;;;;5032367;28;20385;-65
2023/01/20 03:24:01;;;;;;;0.20;0.20;;;1.40;99.90;;;;;;5030250;28;20067;-65
2023/01/20 03:26:27;;;;;;;0.10;0.10;;;1.40;99.90;;;;;;5031127;28;20492;-65
2023/01/20 03:28:55;;;;;;;0.13;0.13;;;1.40;99.90;;;;;;5032470;28;20187;-65
2023/01/20 03:31:25;;;;;;;0.38;0.38;;;1.40;99.90;;;;;;5032018;28;20041;-65
2023/01/20 03:33:53;;;;;;;0.15;0.15;;;1.50;99.90;;;;;;5032767;28;20038;-65
2023/01/20 03:36:22;;;;;;;0.30;0.30;;;1.40;99.90;;;;;;5031906;28;20048;-65
2023/01/20 03:38:48;;;;;;;0.20;0.20;;;1.40;99.90;;;;;;5031947;28;20079;-65
2023/01/20 03:41:38;;;;;;;0.10;0.10;;;1.40;99.90;;;;;;5023927;28;20041;-65
2023/01/20 03:44:10;;;;;;;1.08;1.05;;;1.40;99.90;;;;;;5031627;28;20045;-65
2023/01/20 03:46:44;;;;;;;0.10;0.10;;;1.50;99.90;;;;;;5031877;28;20132;-65
2023/01/20 03:49:39;;;;;;;0.68;0.68;;;1.40;99.90;;;;;;5032549;28;20054;-65
2023/01/20 03:52:22;;;;;;;0.10;0.10;;;1.40;99.90;;;;;;5030006;28;20060;-65
2023/01/20 03:54:59;;;;;;;0.20;0.20;;;1.50;99.90;;;;;;5017610;28;20049;-65
2023/01/20 03:57:31;;;;;;;0.10;0.10;;;1.50;99.90;;;;;;5026476;28;20057;-65
2023/01/20 03:59:58;;;;;;;0.35;0.35;;;1.50;99.90;;;;;;5030942;28;20057;-65
2023/01/20 04:02:26;;;;;;;0.20;0.20;;;1.50;99.90;;;;;;5031011;28;20084;-65
2023/01/20 04:04:53;;;;;;;0.35;0.35;;;1.60;99.90;;;;;;5019546;28;20050;-65
2023/01/20 04:07:25;;;;;;;0.20;0.20;;;1.50;99.90;;;;;;5012160;28;20045;-65
2023/01/20 04:09:57;;;;;;;0.10;0.10;;;1.50;99.90;;;;;;5024187;28;20041;-65
2023/01/20 04:12:22;;;;;;;1.35;0.68;;;1.40;99.90;;;;;;5031528;28;20049;-65
2023/01/20 04:14:48;;;;;;;0.10;0.10;;;1.50;99.90;;;;;;5029400;28;20500;-65
2023/01/20 04:17:14;;;;;;;3.63;1.15;;;1.50;99.90;;;;;;5014091;28;20084;-65
2023/01/20 04:19:40;;;;;;;0.10;0.10;;;1.50;99.90;;;;;;5031886;28;20049;-65
2023/01/20 04:22:16;;;;;;;0.10;0.10;;;1.40;99.90;;;;;;5030767;28;20046;-65
2023/01/20 04:24:45;;;;;;;0.10;0.10;;;1.40;99.90;;;;;;5030857;28;20045;-65
2023/01/20 04:27:10;;;;;;;0.32;0.32;;;1.50;99.90;;;;;;5030178;28;20041;-65
2023/01/20 04:29:36;;;;;;;0.30;0.30;;;1.30;99.90;;;;;;5029292;28;20067;-65
2023/01/20 04:32:02;;;;;;;0.15;0.15;;;1.20;99.90;;;;;;5031710;28;20083;-65
2023/01/20 04:34:28;;;;;;;0.45;0.45;;;1.30;99.90;;;;;;5031009;28;20050;-65
2023/01/20 04:36:54;;;;;;;0.15;0.15;;;1.40;99.90;;;;;;5030956;28;20048;-65
2023/01/20 04:39:20;;;;;;;1.55;1.17;;;1.40;99.90;;;;;;5031694;28;20063;-65
2023/01/20 04:41:47;;;;;;;0.10;0.10;;;1.30;99.90;;;;;;5029800;28;20045;-65
2023/01/20 04:44:12;;;;;;;0.40;0.40;;;1.30;99.90;;;;;;5029810;28;20045;-65
2023/01/20 04:46:38;;;;;;;0.10;0.10;;;1.20;99.90;;;;;;5031320;28;20104;-65
2023/01/20 04:49:03;;;;;;;0.25;0.25;;;1.20;99.90;;;;;;5029908;28;20084;-65
2023/01/20 04:51:31;;;;;;;0.17;0.17;;;1.10;99.90;;;;;;5030546;28;20058;-65
2023/01/20 04:53:58;;;;;;;0.60;0.60;;;1.10;99.90;;;;;;5029401;28;20554;-65
2023/01/20 04:56:24;;;;;;;0.17;0.17;;;1.20;99.90;;;;;;5029043;28;20057;-65
2023/01/20 04:58:50;;;;;;;0.20;0.20;;;1.20;99.90;;;;;;5029766;28;20033;-65
2023/01/20 05:01:15;;;;;;;0.20;0.20;;;1.20;99.90;;;;;;5001647;28;20119;-65
2023/01/20 05:03:41;;;;;;;0.57;0.57;;;1.10;99.90;;;;;;5021051;28;20048;-65
2023/01/20 05:06:11;;;;;;;0.20;0.20;;;1.20;99.90;;;;;;5030261;28;20049;-65
2023/01/20 05:08:37;;;;;;;0.85;0.85;;;1.30;99.90;;;;;;5012536;28;20881;-65
2023/01/20 05:11:03;;;;;;;0.10;0.10;;;1.20;99.90;;;;;;5029460;28;20049;-65
2023/01/20 05:13:29;;;;;;;0.20;0.20;;;1.20;99.90;;;;;;5030912;28;20125;-65
2023/01/20 05:15:55;;;;;;;0.20;0.20;;;1.20;99.90;;;;;;5030862;28;20125;-65
2023/01/20 05:18:20;;;;;;;0.10;0.10;;;1.20;99.90;;;;;;4998662;28;20055;-65
2023/01/20 05:20:47;;;;;;;0.25;0.25;;;1.20;99.90;;;;;;5026800;28;20055;-65
2023/01/20 05:23:14;;;;;;;0.20;0.20;;;1.30;99.90;;;;;;5028902;28;20045;-65
2023/01/20 05:25:39;;;;;;;0.68;0.63;;;1.30;99.90;;;;;;5028456;28;20057;-65
2023/01/20 05:28:05;;;;;;;0.20;0.20;;;1.30;99.90;;;;;;5011674;28;20049;-65
2023/01/20 05:30:31;;;;;;;0.15;0.15;;;1.30;99.90;;;;;;5029430;28;20052;-65
2023/01/20 05:32:57;;;;;;;0.25;0.25;;;1.30;99.90;;;;;;5030602;28;20445;-65
2023/01/20 05:35:22;;;;;;;0.65;0.65;;;1.30;99.90;;;;;;5029057;28;20079;-65
2023/01/20 05:37:53;;;;;;;0.35;0.35;;;1.30;99.90;;;;;;5029637;28;20040;-65
2023/01/20 05:40:18;;;;;;;0.15;0.15;;;1.40;99.90;;;;;;5013728;28;20041;-65
2023/01/20 05:42:44;;;;;;;0.28;0.28;;;1.40;99.90;;;;;;5029387;28;20484;-65
2023/01/20 05:45:10;;;;;;;1.38;1.27;;;1.50;99.90;;;;;;5005023;28;20053;-65
2023/01/20 05:47:35;;;;;;;0.30;0.30;;;1.50;99.90;;;;;;4994596;28;20045;-65
2023/01/20 05:50:01;;;;;;;1.02;0.95;;;1.40;99.90;;;;;;5029468;28;20056;-65
2023/01/20 05:52:26;;;;;;;0.10;0.10;;;1.40;99.90;;;;;;5026904;28;20120;-65
2023/01/20 05:54:52;;;;;;;0.10;0.10;;;1.40;99.90;;;;;;5009146;28;20076;-65
2023/01/20 05:57:18;;;;;;;0.63;0.63;;;1.40;99.90;;;;;;5029560;28;20397;-65
2023/01/20 05:59:47;;;;;;;1.42;0.93;;;1.40;99.90;;;;;;5027565;28;20091;-65
2023/01/20 06:02:17;;;;;;;0.17;0.17;;;1.40;99.90;;;;;;5029270;28;20048;-65
2023/01/20 06:04:44;;;;;;;0.10;0.10;;;1.40;99.90;;;;;;5004680;28;20079;-65
2023/01/20 06:07:09;;;;;;;0.30;0.30;;;1.40;99.90;;;;;;5029570;28;20038;-65
2023/01/20 06:09:35;;;;;;;1.42;1.33;;;1.40;99.90;;;;;;5028340;28;20546;-65
2023/01/20 06:12:00;;;;;;;0.30;0.30;;;1.40;99.90;;;;;;5030262;28;20040;-65
2023/01/20 06:14:26;;;;;;;0.30;0.30;;;1.40;99.90;;;;;;5009843;28;20103;-65
2023/01/20 06:16:51;;;;;;;0.13;0.13;;;1.30;99.90;;;;;;5024589;28;20049;-65
2023/01/20 06:19:17;;;;;;;1.52;1.45;;;1.40;99.90;;;;;;4992446;28;20382;-65
2023/01/20 06:21:43;;;;;;;0.40;0.40;;;1.40;99.90;;;;;;5022021;28;20195;-65
2023/01/20 06:24:08;;;;;;;0.80;0.80;;;1.30;99.90;;;;;;5027929;28;20083;-65
2023/01/20 06:26:34;;;;;;;0.30;0.30;;;1.40;99.90;;;;;;5028559;28;20839;-65
2023/01/20 06:29:00;;;;;;;0.25;0.25;;;1.40;99.90;;;;;;5029811;28;20041;-65
2023/01/20 06:31:27;;;;;;;0.38;0.38;;;1.40;99.90;;;;;;5027293;28;20515;-65
2023/01/20 06:33:54;;;;;;;0.45;0.45;;;1.40;99.90;;;;;;5029075;28;20492;-65
2023/01/20 06:36:19;;;;;;;0.80;0.80;;;1.40;99.90;;;;;;5030284;28;20041;-65
2023/01/20 06:38:49;;;;;;;0.15;0.15;;;1.40;99.90;;;;;;5027872;28;20129;-65
2023/01/20 06:41:16;;;;;;;2.10;1.60;;;1.40;99.90;;;;;;5025225;28;20054;-65
2023/01/20 06:43:41;;;;;;;0.30;0.30;;;1.40;99.90;;;;;;5030138;28;20045;-65
2023/01/20 06:46:10;;;;;;;0.20;0.20;;;1.40;99.90;;;;;;5027762;28;20046;-65
2023/01/20 06:48:36;;;;;;;2.50;2.08;;;1.40;99.90;;;;;;5026870;28;20037;-65
2023/01/20 06:51:04;;;;;;;0.93;0.93;;;1.40;99.90;;;;;;5029594;28;20413;-65
2023/01/20 06:53:30;;;;;;;0.82;0.82;;;1.40;99.90;;;;;;5007844;28;20481;-65
2023/01/20 06:55:57;;;;;;;1.80;1.70;;;1.50;99.90;;;;;;5028796;28;20099;-65
2023/01/20 06:58:24;;;;;;;2.65;2.50;;;1.50;99.90;;;;;;5029884;28;20049;-66
2023/01/20 07:00:50;;;;;;;0.57;0.50;;;1.50;99.90;;;;;;5014184;28;20394;-65
2023/01/20 07:03:16;;;;;;;0.63;0.60;;;1.50;99.90;;;;;;5032072;28;20048;-66
2023/01/20 07:05:42;;;;;;;2.90;2.65;;;1.50;99.90;;;;;;5032831;28;20049;-66
2023/01/20 07:08:07;;;;;;;1.85;1.75;;;1.50;99.90;;;;;;5031293;28;20049;-65
2023/01/20 07:10:33;;;;;;;0.75;0.75;;;1.50;99.90;;;;;;5031674;28;20048;-65
2023/01/20 07:12:58;;;;;;;0.55;0.55;;;1.60;99.90;;;;;;5033122;28;20100;-66
2023/01/20 07:15:24;;;;;;;4.88;2.67;;;1.60;99.90;;;;;;5031997;28;20476;-66
2023/01/20 07:17:50;;;;;;;2.38;1.92;;;1.70;99.90;;;;;;5031059;28;20037;-66
2023/01/20 07:20:15;;;;;;;0.68;0.68;;;1.70;99.90;;;;;;5033147;28;20053;-66
2023/01/20 07:22:41;;;;;;;0.32;0.32;;;1.70;99.90;;;;;;5027025;28;20038;-66
2023/01/20 07:25:07;;;;;;;0.60;0.60;;;1.70;99.90;;;;;;5032696;28;20037;-66
2023/01/20 07:27:32;;;;;;;1.52;1.48;;;1.70;99.90;;;;;;5030446;28;20144;-66
2023/01/20 07:29:58;;;;;;;1.55;1.45;;;1.70;99.90;;;;;;5030871;28;20452;-66
2023/01/20 07:32:24;;;;;;;1.70;1.60;;;1.70;99.90;;;;;;5031641;28;20053;-66
2023/01/20 07:34:49;;;;;;;1.67;1.58;;;1.80;99.90;;;;;;5032493;28;20132;-66
2023/01/20 07:37:15;;;;;;;0.30;0.30;;;1.80;99.90;;;;;;5031125;28;20517;-66
2023/01/20 07:39:41;;;;;;;1.40;1.30;;;1.70;99.90;;;;;;5032458;28;20098;-66
2023/01/20 07:42:06;;;;;;;1.38;1.38;;;1.80;99.90;;;;;;5031283;28;20042;-65
2023/01/20 07:44:32;;;;;;;2.45;2.25;;;1.80;99.90;;;;;;5031112;28;20092;-65
2023/01/20 07:46:57;;;;;;;1.70;1.48;;;1.80;99.90;;;;;;5032435;28;20073;-65
2023/01/20 07:49:23;;;;;;;1.52;1.50;;;1.80;99.90;;;;;;5031456;28;20053;-65
2023/01/20 07:51:49;;;;;;;1.17;0.60;;;1.80;99.90;;;;;;5030895;28;20034;-65
2023/01/20 07:54:14;;;;;;;1.52;0.88;;;1.80;99.90;;;;;;5016568;28;20133;-65
2023/01/20 07:56:40;;;;;;;3.72;3.45;;;1.80;99.90;;;;;;5021389;28;20046;-65
2023/01/20 07:59:06;;;;;;;0.35;0.35;;;1.80;99.90;;;;;;5030621;28;20108;-66
2023/01/20 08:01:32;;;;;;;0.93;0.93;;;1.90;99.90;;;;;;5014285;28;20136;-65
2023/01/20 08:04:01;;;;;;;1.75;1.65;;;1.90;99.90;;;;;;5032035;28;20619;-65
2023/01/20 08:06:27;;;;;;;0.68;0.68;;;1.90;99.90;;;;;;5031130;28;20116;-65
2023/01/20 08:08:54;;;;;;;1.33;1.23;;;1.90;99.90;;;;;;5013775;28;20057;-65
2023/01/20 08:11:21;;;;;;;0.50;0.50;;;1.90;99.90;;;;;;5032424;28;20041;-65
2023/01/20 08:13:47;;;;;;;0.63;0.63;;;2.00;99.90;;;;;;5028627;28;20099;-65
2023/01/20 08:16:15;;;;;;;0.68;0.68;;;1.90;99.90;;;;;;5031593;28;20044;-65
2023/01/20 08:18:41;;;;;;;3.53;1.40;;;1.90;99.90;;;;;;5031081;28;20081;-66
2023/01/20 08:21:15;;;;;;;0.52;0.52;;;1.90;99.90;;;;;;5030371;28;20512;-65
2023/01/20 08:23:41;;;;;;;1.02;1.02;;;1.90;99.90;;;;;;5012591;28;20046;-66
2023/01/20 08:26:07;;;;;;;1.35;1.05;;;1.90;99.90;;;;;;5023007;28;20044;-66
2023/01/20 08:28:34;;;;;;;2.70;2.17;;;2.00;99.90;;;;;;5031462;28;20042;-66
2023/01/20 08:31:20;;;;;;;1.92;1.75;;;1.90;99.90;;;;;;5012879;28;20046;-65
2023/01/20 08:33:46;;;;;;;2.63;2.47;;;2.00;99.90;;;;;;5030554;28;20410;-65
2023/01/20 08:36:18;;;;;;;1.75;1.33;;;1.90;99.90;;;;;;5031364;28;20080;-65
2023/01/20 08:38:44;;;;;;;0.10;0.10;;;1.90;99.90;;;;;;5028819;28;20117;-65
2023/01/20 08:41:17;;;;;;;3.10;2.83;;;1.90;99.90;;;;;;5030283;28;20044;-65
2023/01/20 08:43:43;;;;;;;1.85;1.75;;;1.90;99.90;;;;;;5030602;28;20053;-65
2023/01/20 08:46:11;;;;;;;0.85;0.85;;;1.90;99.90;;;;;;5030666;28;20047;-65
2023/01/20 08:48:39;;;;;;;0.35;0.35;;;1.90;99.90;;;;;;5030736;28;20045;-65
2023/01/20 08:51:25;;;;;;;0.50;0.50;;;1.90;99.90;;;;;;5029574;28;20060;-65
2023/01/20 08:53:51;;;;;;;0.60;0.60;;;1.90;99.90;;;;;;5017320;28;20053;-65
2023/01/20 08:56:17;;;;;;;9.73;3.22;;;1.90;99.90;;;;;;5030809;28;20041;-65
2023/01/20 08:58:43;;;;;;;9.63;2.40;;;2.00;99.90;;;;;;5030174;28;20128;-65
2023/01/20 09:01:15;;;;;;;4.45;2.20;;;2.00;99.90;;;;;;5029885;28;20048;-65
2023/01/20 09:03:41;;;;;;;0.35;0.35;;;2.00;99.90;;;;;;5031078;28;20057;-65
2023/01/20 09:06:07;;;;;;;1.65;1.55;;;2.00;99.90;;;;;;5030960;28;20034;-66
2023/01/20 09:08:34;;;;;;;0.50;0.50;;;2.00;99.90;;;;;;5029546;28;20049;-65
2023/01/20 09:11:12;;;;;;;1.05;1.05;;;2.00;99.90;;;;;;5031158;28;20119;-65
2023/01/20 09:13:38;;;;;;;2.05;1.95;;;2.00;99.90;;;;;;5022809;28;20124;-65
2023/01/20 09:16:04;;;;;;;1.45;1.35;;;2.10;99.90;;;;;;5028779;28;20120;-65
2023/01/20 09:18:34;;;;;;;1.10;1.10;;;2.10;99.90;;;;;;5030769;28;20072;-65
2023/01/20 09:21:01;;;;;;;1.20;1.20;;;2.10;99.90;;;;;;5025117;28;20572;-65
2023/01/20 09:23:27;;;;;;;1.25;1.25;;;2.10;99.90;;;;;;5011180;28;20045;-66
2023/01/20 09:25:54;;;;;;;0.57;0.57;;;2.10;99.90;;;;;;5029526;28;20049;-65
2023/01/20 09:28:19;;;;;;;0.35;0.35;;;2.10;99.90;;;;;;5028107;28;20509;-65
2023/01/20 09:30:45;;;;;;;0.32;0.32;;;2.10;99.90;;;;;;5027769;28;20042;-66
2023/01/20 09:33:11;;;;;;;3.42;1.65;;;2.20;99.90;;;;;;5020936;28;20048;-65
2023/01/20 09:35:38;;;;;;;1.95;1.77;;;2.20;99.90;;;;;;5011522;28;20702;-65
2023/01/20 09:44:06;;;;;;;0.20;0.20;;;2.20;99.90;;;;;;5027028;28;20045;-65
2023/01/20 09:47:20;;;;;;;3.70;1.85;;;2.20;99.90;;;;;;5026024;28;20041;-65
2023/01/20 09:53:04;;;;;;;1.20;1.17;;;2.20;99.90;;;;;;5022922;28;20053;-65
2023/01/20 09:56:05;;;;;;;0.40;0.40;;;2.30;99.90;;;;;;5030059;28;20129;-66
2023/01/20 09:58:38;;;;;;;1.65;1.55;;;2.30;99.90;;;;;;4988061;28;20050;-66
2023/01/20 10:01:10;;;;;;;3.08;0.93;;;2.30;99.90;;;;;;5016493;28;20062;-65
2023/01/20 10:04:00;;;;;;;1.40;1.30;;;2.30;99.90;;;;;;5022693;28;20097;-65
2023/01/20 10:06:32;;;;;;;0.93;0.93;;;2.30;99.90;;;;;;5023212;28;20045;-65
2023/01/20 10:09:07;;;;;;;0.73;0.73;;;2.30;99.90;;;;;;5030439;28;20041;-65
2023/01/20 10:11:41;;;;;;;0.20;0.20;;;2.30;99.90;;;;;;5029305;28;20053;-65
2023/01/20 10:14:22;;;;;;;1.83;1.73;;;2.30;99.90;;;;;;5029399;28;20053;-65
2023/01/20 10:16:55;;;;;;;0.20;0.20;;;2.40;99.90;;;;;;5029349;28;20075;-65
2023/01/20 10:19:30;;;;;;;1.02;1.02;;;2.40;99.90;;;;;;5008659;28;20073;-65
2023/01/20 10:22:15;;;;;;;1.10;1.10;;;2.40;99.90;;;;;;5007285;28;20046;-65
2023/01/20 10:25:19;;;;;;;1.23;1.20;;;2.40;99.90;;;;;;5019522;28;20045;-65
2023/01/20 10:27:51;;;;;;;0.85;0.85;;;2.50;99.90;;;;;;5028521;28;20129;-65
2023/01/20 10:30:20;;;;;;;1.80;1.73;;;2.50;99.90;;;;;;5030320;28;20052;-65
2023/01/20 10:33:08;;;;;;;0.38;0.38;;;2.50;99.90;;;;;;5009846;28;20061;-65
2023/01/20 10:35:39;;;;;;;0.35;0.35;;;2.50;99.90;;;;;;5031297;28;20034;-65
2023/01/20 10:38:07;;;;;;;0.40;0.40;;;2.50;99.90;;;;;;5027959;28;20484;-65
2023/01/20 10:40:37;;;;;;;0.50;0.50;;;2.60;99.90;;;;;;5032875;28;20042;-65
2023/01/20 10:43:14;;;;;;;0.15;0.15;;;2.50;99.90;;;;;;5034056;28;20378;-65
2023/01/20 10:45:55;;;;;;;0.57;0.57;;;2.60;99.90;;;;;;5019945;28;20046;-65
2023/01/20 10:48:48;;;;;;;5.22;4.25;;;2.60;99.90;;;;;;5028862;28;20052;-65
2023/01/20 10:51:33;;;;;;;1.98;1.40;;;2.60;99.90;;;;;;5006961;28;20052;-65
2023/01/20 10:54:09;;;;;;;1.30;1.30;;;2.70;99.90;;;;;;5031968;28;20091;-65
2023/01/20 10:56:41;;;;;;;0.95;0.95;;;2.60;99.90;;;;;;5033581;28;20053;-65
2023/01/20 10:59:14;;;;;;;4.03;2.40;;;2.70;99.90;;;;;;5030524;28;20112;-65
2023/01/20 11:01:41;;;;;;;0.50;0.50;;;2.70;99.90;;;;;;5023758;28;20041;-65
2023/01/20 11:04:18;;;;;;;0.95;0.95;;;2.80;99.90;;;;;;5010884;28;20221;-65
2023/01/20 11:06:47;;;;;;;4.88;1.65;;;2.80;99.90;;;;;;5031242;28;20056;-66
2023/01/20 11:09:48;;;;;;;3.08;2.20;;;2.70;99.90;;;;;;5029026;28;20120;-64
2023/01/20 11:12:31;;;;;;;0.73;0.73;;;2.80;99.90;;;;;;4937398;29;20051;-64
2023/01/20 11:14:59;;;;;;;1.90;1.80;;;2.80;99.90;;;;;;5000919;28;20060;-63
2023/01/20 11:17:24;;;;;;;5.40;1.20;;;2.70;99.90;;;;;;5029028;28;20489;-63
2023/01/20 11:19:52;;;;;;;0.52;0.52;;;2.80;99.90;;;;;;5028471;28;20047;-63
2023/01/20 11:22:28;;;;;;;0.65;0.65;;;2.70;99.90;;;;;;5026716;28;20029;-64
2023/01/20 11:24:57;;;;;;;5.78;2.40;;;2.80;99.90;;;;;;5024781;28;20052;-64
2023/01/20 11:27:26;;;;;;;0.10;0.10;;;2.80;99.90;;;;;;5027433;28;20045;-66
2023/01/20 11:29:58;;;;;;;2.92;1.92;;;2.80;99.90;;;;;;5029281;28;20033;-66
2023/01/20 11:32:36;;;;;;;0.43;0.43;;;2.80;99.90;;;;;;5030642;28;20487;-66
2023/01/20 11:35:18;;;;;;;0.30;0.30;;;2.90;99.90;;;;;;5032183;28;20132;-66
2023/01/20 11:37:43;;;;;;;0.30;0.30;;;2.80;99.90;;;;;;5028229;28;20129;-66
2023/01/20 11:40:21;;;;;;;2.15;1.77;;;2.80;99.90;;;;;;5031770;28;20132;-66
2023/01/20 11:42:48;;;;;;;0.10;0.10;;;2.80;99.90;;;;;;5032055;28;20120;-66
2023/01/20 11:45:33;;;;;;;2.80;2.60;;;2.90;99.90;;;;;;5031845;28;20072;-65
2023/01/20 11:48:14;;;;;;;2.60;1.75;;;2.90;99.90;;;;;;5021069;28;20068;-66
2023/01/20 11:50:54;;;;;;;0.32;0.32;;;2.90;99.90;;;;;;5029974;28;20049;-66
2023/01/20 11:53:25;;;;;;;1.35;1.35;;;2.90;99.90;;;;;;5033016;28;20052;-66
2023/01/20 11:56:04;;;;;;;1.67;1.58;;;2.90;99.90;;;;;;5032756;28;20037;-66
2023/01/20 11:59:00;;;;;;;0.82;0.82;;;2.90;99.90;;;;;;5027975;28;20397;-66
2023/01/20 12:01:48;;;;;;;1.58;1.48;;;2.90;99.90;;;;;;5030809;28;20089;-66
2023/01/20 12:04:22;;;;;;;1.45;1.35;;;2.90;99.90;;;;;;5028281;28;20543;-65
2023/01/20 12:07:11;;;;;;;0.30;0.30;;;3.00;99.90;;;;;;5030147;28;20400;-66
2023/01/20 12:09:40;;;;;;;2.90;2.05;;;2.90;99.90;;;;;;5027218;28;20052;-66
2023/01/20 12:12:26;;;;;;;0.63;0.63;;;3.00;99.90;;;;;;5025574;28;20048;-66
2023/01/20 12:15:15;;;;;;;2.65;2.22;;;3.00;99.90;;;;;;5030140;28;20473;-65
2023/01/20 12:17:41;;;;;;;1.48;1.38;;;3.00;99.90;;;;;;5029288;28;20106;-66
2023/01/20 12:20:22;;;;;;;1.75;1.42;;;3.00;99.90;;;;;;5030046;28;20552;-66
2023/01/20 12:23:09;;;;;;;0.75;0.75;;;3.00;99.90;;;;;;5010322;28;20056;-65
2023/01/20 12:26:00;;;;;;;1.75;1.48;;;3.00;99.90;;;;;;5026014;28;20045;-66
2023/01/20 12:29:11;;;;;;;0.90;0.90;;;3.00;99.90;;;;;;5031478;28;20060;-66
2023/01/20 12:31:37;;;;;;;1.55;1.45;;;3.00;99.90;;;;;;5027939;28;20432;-66
2023/01/20 12:34:12;;;;;;;2.53;2.38;;;3.00;99.90;;;;;;5027872;28;20087;-65
2023/01/20 12:36:45;;;;;;;1.75;1.63;;;3.00;99.90;;;;;;5030688;28;20433;-66
2023/01/20 12:39:23;;;;;;;0.88;0.85;;;3.00;99.90;;;;;;5025656;28;20116;-66
2023/01/20 12:42:08;;;;;;;6.43;2.15;;;3.00;99.90;;;;;;5030643;28;20057;-66
2023/01/20 12:44:50;;;;;;;0.40;0.40;;;3.10;99.90;;;;;;5031537;28;20516;-66
2023/01/20 12:47:22;;;;;;;0.22;0.22;;;3.10;99.90;;;;;;5029949;28;20049;-66
2023/01/20 12:50:02;;;;;;;1.80;1.70;;;3.10;99.90;;;;;;5031316;28;20140;-66
2023/01/20 12:53:16;;;;;;;5.53;2.30;;;3.10;99.90;;;;;;5028748;28;20060;-66
2023/01/20 12:55:54;;;;;;;0.82;0.82;;;3.10;99.90;;;;;;5017931;28;20045;-65
2023/01/20 12:58:44;;;;;;;0.40;0.40;;;3.00;99.90;;;;;;5031032;28;20125;-66
2023/01/20 13:01:37;;;;;;;2.63;2.42;;;3.00;99.90;;;;;;5030373;28;20045;-65
2023/01/20 13:04:27;;;;;;;0.95;0.95;;;3.00;99.90;;;;;;5030185;28;20057;-66
2023/01/20 13:07:30;;;;;;;0.28;0.28;;;3.00;99.90;;;;;;5030228;28;20049;-64
2023/01/20 13:10:14;;;;;;;0.50;0.50;;;3.00;99.90;;;;;;5030819;28;20500;-66
2023/01/20 13:12:50;;;;;;;;;;;3.00;99.90;;;;;;5009668;28;20077;-66
2023/01/20 13:15:31;;;;;;;1.10;1.10;;;3.00;99.90;;;;;;5026909;28;20427;-66
2023/01/20 13:18:38;;;;;;;0.63;0.63;;;3.10;99.90;;;;;;5008656;28;20049;-66
2023/01/20 13:21:04;;;;;;;0.50;0.50;;;3.10;99.90;;;;;;4991515;28;20049;-66
2023/01/20 13:23:36;;;;;;;0.20;0.20;;;3.10;99.90;;;;;;5025734;28;20519;-66
2023/01/20 13:26:03;;;;;;;0.10;0.10;;;3.10;99.90;;;;;;5029936;28;20041;-66
2023/01/20 13:28:29;;;;;;;1.85;1.75;;;3.10;99.90;;;;;;5027715;28;20041;-66
2023/01/20 13:31:00;;;;;;;4.47;0.90;;;3.10;99.90;;;;;;5027104;28;20055;-66